sensor_id;sensor_type;location;lat;lon;timestamp;pressure;altitude;pressure_sealevel;temperature;humidity
8697;BME280;4385;48.848;8.924;2022-12-18T00:00:25;98405.38;;;14.17;100.00
8697;BME280;4385;48.848;8.924;2022-12-18T00:02:50;98402.78;;;14.11;100.00
8697;BME280;4385;48.848;8.924;2022-12-18T00:05:15;98406.97;;;14.07;100.00
8697;BME280;4385;48.848;8.924;2022-12-18T00:07:41;98406.91;;;14.02;100.00
8697;BME280;4385;48.848;8.924;2022-12-18T00:10:06;98408.53;;;13.97;100.00
8697;BME280;4385;48.848;8.924;2022-12-18T00:12:32;98416.97;;;13.93;100.00
8697;BME280;4385;48.848;8.924;2022-12-18T00:14:57;98396.63;;;13.87;100.00
8697;BME280;4385;48.848;8.924;2022-12-18T00:17:22;98410.09;;;13.82;100.00
8697;BME280;4385;48.848;8.924;2022-12-18T00:19:48;98397.38;;;13.78;100.00
8697;BME280;4385;48.848;8.924;2022-12-18T00:22:13;98399.84;;;13.73;100.00
8697;BME280;4385;48.848;8.924;2022-12-18T00:24:38;98403.16;;;13.69;100.00
8697;BME280;4385;48.848;8.924;2022-12-18T00:27:04;98406.50;;;13.65;100.00
8697;BME280;4385;48.848;8.924;2022-12-18T00:29:29;98414.03;;;13.60;100.00
8697;BME280;4385;48.848;8.924;2022-12-18T00:31:54;98417.38;;;13.56;100.00
8697;BME280;4385;48.848;8.924;2022-12-18T00:34:20;98410.53;;;13.50;100.00
8697;BME280;4385;48.848;8.924;2022-12-18T00:36:47;98423.13;;;13.47;100.00
8697;BME280;4385;48.848;8.924;2022-12-18T00:39:12;98428.16;;;13.44;100.00
8697;BME280;4385;48.848;8.924;2022-12-18T00:41:37;98420.50;;;13.39;100.00
8697;BME280;4385;48.848;8.924;2022-12-18T00:44:21;98418.75;;;13.35;100.00
8697;BME280;4385;48.848;8.924;2022-12-18T00:46:47;98412.78;;;13.31;100.00
8697;BME280;4385;48.848;8.924;2022-12-18T00:49:14;98411.06;;;13.27;100.00
8697;BME280;4385;48.848;8.924;2022-12-18T00:51:39;98411.00;;;13.24;100.00
8697;BME280;4385;48.848;8.924;2022-12-18T00:54:05;98414.34;;;13.20;100.00
8697;BME280;4385;48.848;8.924;2022-12-18T00:56:30;98414.31;;;13.17;100.00
8697;BME280;4385;48.848;8.924;2022-12-18T00:58:56;98416.75;;;13.12;100.00
8697;BME280;4385;48.848;8.924;2022-12-18T01:01:21;98421.78;;;13.09;100.00
8697;BME280;4385;48.848;8.924;2022-12-18T01:03:47;98419.22;;;13.07;100.00
8697;BME280;4385;48.848;8.924;2022-12-18T01:06:13;98412.44;;;13.05;100.00
8697;BME280;4385;48.848;8.924;2022-12-18T01:08:39;98409.88;;;13.03;100.00
8697;BME280;4385;48.848;8.924;2022-12-18T01:11:16;98412.34;;;13.00;100.00
8697;BME280;4385;48.848;8.924;2022-12-18T01:13:42;98416.56;;;12.98;100.00
8697;BME280;4385;48.848;8.924;2022-12-18T01:16:07;98412.31;;;12.97;100.00
8697;BME280;4385;48.848;8.924;2022-12-18T01:18:35;98422.38;;;12.94;100.00
8697;BME280;4385;48.848;8.924;2022-12-18T01:21:05;98426.56;;;12.90;100.00
8697;BME280;4385;48.848;8.924;2022-12-18T01:23:31;98425.66;;;12.87;100.00
8697;BME280;4385;48.848;8.924;2022-12-18T01:25:56;98418.03;;;12.83;100.00
8697;BME280;4385;48.848;8.924;2022-12-18T01:28:21;98409.53;;;12.80;100.00
8697;BME280;4385;48.848;8.924;2022-12-18T01:30:47;98410.34;;;12.77;100.00
8697;BME280;4385;48.848;8.924;2022-12-18T01:33:12;98414.47;;;12.74;100.00
8697;BME280;4385;48.848;8.924;2022-12-18T01:35:41;98414.44;;;12.70;100.00
8697;BME280;4385;48.848;8.924;2022-12-18T01:38:07;98417.78;;;12.68;100.00
8697;BME280;4385;48.848;8.924;2022-12-18T01:40:33;98424.47;;;12.66;100.00
8697;BME280;4385;48.848;8.924;2022-12-18T01:42:58;98414.31;;;12.63;100.00
8697;BME280;4385;48.848;8.924;2022-12-18T01:45:25;98421.06;;;12.62;100.00
8697;BME280;4385;48.848;8.924;2022-12-18T01:47:53;98416.84;;;12.63;100.00
8697;BME280;4385;48.848;8.924;2022-12-18T01:50:27;98406.00;;;12.68;100.00
8697;BME280;4385;48.848;8.924;2022-12-18T01:52:54;98401.81;;;12.72;100.00
8697;BME280;4385;48.848;8.924;2022-12-18T01:55:23;98405.28;;;12.77;100.00
8697;BME280;4385;48.848;8.924;2022-12-18T01:57:52;98400.28;;;12.82;100.00
8697;BME280;4385;48.848;8.924;2022-12-18T02:00:20;98407.94;;;12.85;100.00
8697;BME280;4385;48.848;8.924;2022-12-18T02:02:46;98418.94;;;12.89;100.00
8697;BME280;4385;48.848;8.924;2022-12-18T02:05:15;98419.00;;;12.92;100.00
8697;BME280;4385;48.848;8.924;2022-12-18T02:07:48;98410.56;;;12.93;100.00
8697;BME280;4385;48.848;8.924;2022-12-18T02:10:29;98415.63;;;12.93;100.00
8697;BME280;4385;48.848;8.924;2022-12-18T02:18:48;98416.34;;;12.84;100.00
8697;BME280;4385;48.848;8.924;2022-12-18T02:21:55;98417.09;;;12.80;100.00
8697;BME280;4385;48.848;8.924;2022-12-18T02:24:35;98415.41;;;12.77;100.00
8697;BME280;4385;48.848;8.924;2022-12-18T02:27:06;98415.28;;;12.71;100.00
8697;BME280;4385;48.848;8.924;2022-12-18T02:29:43;98413.50;;;12.64;100.00
8697;BME280;4385;48.848;8.924;2022-12-18T02:32:14;98406.66;;;12.59;100.00
8697;BME280;4385;48.848;8.924;2022-12-18T02:34:43;98403.28;;;12.57;100.00
8697;BME280;4385;48.848;8.924;2022-12-18T02:37:12;98415.03;;;12.55;100.00
8697;BME280;4385;48.848;8.924;2022-12-18T02:39:40;98410.78;;;12.51;100.00
8697;BME280;4385;48.848;8.924;2022-12-18T02:42:07;98404.81;;;12.49;100.00
8697;BME280;4385;48.848;8.924;2022-12-18T02:44:43;98419.13;;;12.49;100.00
8697;BME280;4385;48.848;8.924;2022-12-18T02:47:13;98418.28;;;12.46;100.00
8697;BME280;4385;48.848;8.924;2022-12-18T02:52:38;98423.25;;;12.42;100.00
8697;BME280;4385;48.848;8.924;2022-12-18T02:55:26;98418.97;;;12.39;100.00
8697;BME280;4385;48.848;8.924;2022-12-18T02:57:55;98424.91;;;12.40;100.00
8697;BME280;4385;48.848;8.924;2022-12-18T03:00:53;98418.16;;;12.39;100.00
8697;BME280;4385;48.848;8.924;2022-12-18T03:03:26;98421.47;;;12.38;100.00
8697;BME280;4385;48.848;8.924;2022-12-18T03:06:06;98423.97;;;12.36;100.00
8697;BME280;4385;48.848;8.924;2022-12-18T03:08:39;98422.25;;;12.33;100.00
8697;BME280;4385;48.848;8.924;2022-12-18T03:11:09;98434.00;;;12.31;100.00
8697;BME280;4385;48.848;8.924;2022-12-18T03:13:37;98429.78;;;12.30;100.00
8697;BME280;4385;48.848;8.924;2022-12-18T03:16:06;98421.31;;;12.28;100.00
8697;BME280;4385;48.848;8.924;2022-12-18T03:18:55;98423.81;;;12.27;100.00
8697;BME280;4385;48.848;8.924;2022-12-18T03:21:27;98423.81;;;12.27;100.00
8697;BME280;4385;48.848;8.924;2022-12-18T03:23:53;98435.63;;;12.26;100.00
8697;BME280;4385;48.848;8.924;2022-12-18T03:26:22;98447.22;;;12.16;100.00
8697;BME280;4385;48.848;8.924;2022-12-18T03:28:52;98444.63;;;12.13;100.00
8697;BME280;4385;48.848;8.924;2022-12-18T03:31:21;98443.00;;;12.15;100.00
8697;BME280;4385;48.848;8.924;2022-12-18T03:33:55;98434.56;;;12.15;100.00
8697;BME280;4385;48.848;8.924;2022-12-18T03:36:23;98435.41;;;12.14;100.00
8697;BME280;4385;48.848;8.924;2022-12-18T03:38:48;98434.50;;;12.12;100.00
8697;BME280;4385;48.848;8.924;2022-12-18T03:41:32;98430.31;;;12.12;100.00
8697;BME280;4385;48.848;8.924;2022-12-18T03:44:20;98429.56;;;12.18;100.00
8697;BME280;4385;48.848;8.924;2022-12-18T03:49:27;98438.22;;;12.31;100.00
8697;BME280;4385;48.848;8.924;2022-12-18T03:52:17;98439.25;;;12.42;100.00
8697;BME280;4385;48.848;8.924;2022-12-18T03:54:46;98436.03;;;12.50;100.00
8697;BME280;4385;48.848;8.924;2022-12-18T03:57:16;98431.06;;;12.56;100.00
8697;BME280;4385;48.848;8.924;2022-12-18T03:59:44;98423.66;;;12.67;100.00
8697;BME280;4385;48.848;8.924;2022-12-18T04:02:11;98431.47;;;12.79;100.00
8697;BME280;4385;48.848;8.924;2022-12-18T04:04:37;98427.31;;;12.84;100.00
8697;BME280;4385;48.848;8.924;2022-12-18T04:07:04;98429.94;;;12.91;100.00
8697;BME280;4385;48.848;8.924;2022-12-18T04:09:32;98430.78;;;12.91;100.00
8697;BME280;4385;48.848;8.924;2022-12-18T04:11:58;98435.91;;;12.96;100.00
8697;BME280;4385;48.848;8.924;2022-12-18T04:14:24;98434.22;;;12.95;100.00
8697;BME280;4385;48.848;8.924;2022-12-18T04:16:49;98439.28;;;12.95;100.00
8697;BME280;4385;48.848;8.924;2022-12-18T04:19:14;98441.78;;;12.93;100.00
8697;BME280;4385;48.848;8.924;2022-12-18T04:21:40;98443.41;;;12.90;100.00
8697;BME280;4385;48.848;8.924;2022-12-18T04:24:05;98435.78;;;12.87;100.00
8697;BME280;4385;48.848;8.924;2022-12-18T04:26:30;98443.34;;;12.85;100.00
8697;BME280;4385;48.848;8.924;2022-12-18T04:28:56;98444.16;;;12.82;100.00
8697;BME280;4385;48.848;8.924;2022-12-18T04:31:21;98438.22;;;12.80;100.00
8697;BME280;4385;48.848;8.924;2022-12-18T04:33:47;98433.09;;;12.77;100.00
8697;BME280;4385;48.848;8.924;2022-12-18T04:36:12;98427.09;;;12.72;100.00
8697;BME280;4385;48.848;8.924;2022-12-18T04:38:37;98423.72;;;12.70;100.00
8697;BME280;4385;48.848;8.924;2022-12-18T04:41:03;98423.63;;;12.64;100.00
8697;BME280;4385;48.848;8.924;2022-12-18T04:43:28;98426.09;;;12.61;100.00
8697;BME280;4385;48.848;8.924;2022-12-18T04:45:53;98414.16;;;12.53;100.00
8697;BME280;4385;48.848;8.924;2022-12-18T04:48:25;98421.69;;;12.50;100.00
8697;BME280;4385;48.848;8.924;2022-12-18T04:50:50;98422.41;;;12.43;100.00
8697;BME280;4385;48.848;8.924;2022-12-18T04:53:16;98411.38;;;12.38;100.00
8697;BME280;4385;48.848;8.924;2022-12-18T04:55:42;98414.69;;;12.33;100.00
8697;BME280;4385;48.848;8.924;2022-12-18T04:58:07;98421.38;;;12.31;100.00
8697;BME280;4385;48.848;8.924;2022-12-18T05:00:32;98423.72;;;12.22;100.00
8697;BME280;4385;48.848;8.924;2022-12-18T05:03:00;98421.16;;;12.19;100.00
8697;BME280;4385;48.848;8.924;2022-12-18T05:05:26;98426.16;;;12.16;100.00
8697;BME280;4385;48.848;8.924;2022-12-18T05:07:52;98430.31;;;12.12;100.00
8697;BME280;4385;48.848;8.924;2022-12-18T05:10:17;98431.09;;;12.09;100.00
8697;BME280;4385;48.848;8.924;2022-12-18T05:12:42;98426.00;;;12.08;100.00
8697;BME280;4385;48.848;8.924;2022-12-18T05:15:28;98435.22;;;12.06;100.00
8697;BME280;4385;48.848;8.924;2022-12-18T05:17:53;98442.75;;;12.04;100.00
8697;BME280;4385;48.848;8.924;2022-12-18T05:20:18;98432.59;;;12.01;100.00
8697;BME280;4385;48.848;8.924;2022-12-18T05:22:44;98451.06;;;11.98;100.00
8697;BME280;4385;48.848;8.924;2022-12-18T05:25:09;98444.28;;;11.96;100.00
8697;BME280;4385;48.848;8.924;2022-12-18T05:27:34;98446.75;;;11.93;100.00
8697;BME280;4385;48.848;8.924;2022-12-18T05:30:00;98460.22;;;11.92;100.00
8697;BME280;4385;48.848;8.924;2022-12-18T05:32:25;98461.84;;;11.90;100.00
8697;BME280;4385;48.848;8.924;2022-12-18T05:34:50;98465.19;;;11.89;100.00
8697;BME280;4385;48.848;8.924;2022-12-18T05:37:15;98457.56;;;11.85;100.00
8697;BME280;4385;48.848;8.924;2022-12-18T05:39:42;98453.34;;;11.86;100.00
8697;BME280;4385;48.848;8.924;2022-12-18T05:42:07;98455.91;;;11.88;100.00
8697;BME280;4385;48.848;8.924;2022-12-18T05:44:33;98451.78;;;11.91;100.00
8697;BME280;4385;48.848;8.924;2022-12-18T05:46:59;98455.28;;;11.98;100.00
8697;BME280;4385;48.848;8.924;2022-12-18T05:49:24;98453.72;;;12.06;100.00
8697;BME280;4385;48.848;8.924;2022-12-18T05:51:49;98446.38;;;12.16;100.00
8697;BME280;4385;48.848;8.924;2022-12-18T05:54:14;98449.06;;;12.25;100.00
8697;BME280;4385;48.848;8.924;2022-12-18T05:56:40;98442.47;;;12.33;100.00
8697;BME280;4385;48.848;8.924;2022-12-18T05:59:05;98452.78;;;12.44;100.00
8697;BME280;4385;48.848;8.924;2022-12-18T06:01:30;98458.81;;;12.51;100.00
8697;BME280;4385;48.848;8.924;2022-12-18T06:03:55;98447.88;;;12.54;100.00
8697;BME280;4385;48.848;8.924;2022-12-18T06:06:26;98445.38;;;12.55;100.00
8697;BME280;4385;48.848;8.924;2022-12-18T06:08:52;98445.44;;;12.58;100.00
8697;BME280;4385;48.848;8.924;2022-12-18T06:11:20;98447.09;;;12.58;100.00
8697;BME280;4385;48.848;8.924;2022-12-18T06:13:49;98442.91;;;12.58;100.00
8697;BME280;4385;48.848;8.924;2022-12-18T06:16:15;98455.53;;;12.57;100.00
8697;BME280;4385;48.848;8.924;2022-12-18T06:18:40;98455.50;;;12.55;100.00
8697;BME280;4385;48.848;8.924;2022-12-18T06:21:05;98447.88;;;12.54;100.00
8697;BME280;4385;48.848;8.924;2022-12-18T06:23:31;98448.69;;;12.51;100.00
8697;BME280;4385;48.848;8.924;2022-12-18T06:25:56;98459.59;;;12.49;100.00
8697;BME280;4385;48.848;8.924;2022-12-18T06:28:22;98465.44;;;12.46;100.00
8697;BME280;4385;48.848;8.924;2022-12-18T06:30:47;98467.06;;;12.42;100.00
8697;BME280;4385;48.848;8.924;2022-12-18T06:33:14;98458.59;;;12.39;100.00
8697;BME280;4385;48.848;8.924;2022-12-18T06:35:39;98458.47;;;12.32;100.00
8697;BME280;4385;48.848;8.924;2022-12-18T06:38:05;98462.66;;;12.30;100.00
8697;BME280;4385;48.848;8.924;2022-12-18T06:40:30;98456.69;;;12.28;100.00
8697;BME280;4385;48.848;8.924;2022-12-18T06:42:56;98458.44;;;12.29;100.00
8697;BME280;4385;48.848;8.924;2022-12-18T06:45:21;98464.34;;;12.31;100.00
8697;BME280;4385;48.848;8.924;2022-12-18T06:47:46;98466.13;;;12.36;100.00
8697;BME280;4385;48.848;8.924;2022-12-18T06:50:12;98467.03;;;12.41;100.00
8697;BME280;4385;48.848;8.924;2022-12-18T06:52:38;98467.16;;;12.47;100.00
8697;BME280;4385;48.848;8.924;2022-12-18T06:55:06;98476.59;;;12.56;100.00
8697;BME280;4385;48.848;8.924;2022-12-18T06:57:32;98470.84;;;12.65;100.00
8697;BME280;4385;48.848;8.924;2022-12-18T06:59:57;98476.06;;;12.76;100.00
8697;BME280;4385;48.848;8.924;2022-12-18T07:02:22;98485.50;;;12.84;100.00
8697;BME280;4385;48.848;8.924;2022-12-18T07:04:47;98486.47;;;12.93;100.00
8697;BME280;4385;48.848;8.924;2022-12-18T07:07:13;98490.81;;;13.02;100.00
8697;BME280;4385;48.848;8.924;2022-12-18T07:09:38;98485.84;;;13.06;100.00
8697;BME280;4385;48.848;8.924;2022-12-18T07:12:03;98486.78;;;13.12;100.00
8697;BME280;4385;48.848;8.924;2022-12-18T07:14:30;98484.28;;;13.15;100.00
8697;BME280;4385;48.848;8.924;2022-12-18T07:16:55;98494.47;;;13.18;100.00
8697;BME280;4385;48.848;8.924;2022-12-18T07:19:20;98491.97;;;13.21;100.00
8697;BME280;4385;48.848;8.924;2022-12-18T07:21:45;98486.91;;;13.21;100.00
8697;BME280;4385;48.848;8.924;2022-12-18T07:24:11;98488.56;;;13.20;100.00
8697;BME280;4385;48.848;8.924;2022-12-18T07:26:36;98486.88;;;13.18;100.00
8697;BME280;4385;48.848;8.924;2022-12-18T07:29:01;98499.53;;;13.18;100.00
8697;BME280;4385;48.848;8.924;2022-12-18T07:31:27;98500.31;;;13.14;100.00
8697;BME280;4385;48.848;8.924;2022-12-18T07:33:52;98502.00;;;13.15;100.00
8697;BME280;4385;48.848;8.924;2022-12-18T07:36:18;98497.78;;;13.14;100.00
8697;BME280;4385;48.848;8.924;2022-12-18T07:38:46;98491.03;;;13.14;100.00
8697;BME280;4385;48.848;8.924;2022-12-18T07:41:13;98493.63;;;13.19;100.00
8697;BME280;4385;48.848;8.924;2022-12-18T07:43:40;98492.84;;;13.23;100.00
8697;BME280;4385;48.848;8.924;2022-12-18T07:46:07;98493.75;;;13.28;100.00
8697;BME280;4385;48.848;8.924;2022-12-18T07:48:33;98494.66;;;13.32;100.00
8697;BME280;4385;48.848;8.924;2022-12-18T07:50:59;98493.06;;;13.37;100.00
8697;BME280;4385;48.848;8.924;2022-12-18T07:53:25;98497.34;;;13.43;100.00
8697;BME280;4385;48.848;8.924;2022-12-18T07:55:58;98497.44;;;13.49;100.00
8697;BME280;4385;48.848;8.924;2022-12-18T07:58:23;98496.72;;;13.56;100.00
8697;BME280;4385;48.848;8.924;2022-12-18T08:00:49;98496.81;;;13.64;100.00
8697;BME280;4385;48.848;8.924;2022-12-18T08:03:14;98496.13;;;13.73;100.00
8697;BME280;4385;48.848;8.924;2022-12-18T08:05:39;98497.06;;;13.81;100.00
8697;BME280;4385;48.848;8.924;2022-12-18T08:08:04;98497.13;;;13.88;100.00
8697;BME280;4385;48.848;8.924;2022-12-18T08:10:30;98501.44;;;13.92;100.00
8697;BME280;4385;48.848;8.924;2022-12-18T08:12:55;98509.91;;;13.95;100.00
8697;BME280;4385;48.848;8.924;2022-12-18T08:15:20;98514.19;;;13.98;100.00
8697;BME280;4385;48.848;8.924;2022-12-18T08:17:46;98519.25;;;13.98;100.00
8697;BME280;4385;48.848;8.924;2022-12-18T08:20:11;98520.06;;;13.97;100.00
8697;BME280;4385;48.848;8.924;2022-12-18T08:22:36;98507.38;;;13.95;100.00
8697;BME280;4385;48.848;8.924;2022-12-18T08:25:03;98509.09;;;13.96;100.00
8697;BME280;4385;48.848;8.924;2022-12-18T08:27:28;98515.81;;;13.94;100.00
8697;BME280;4385;48.848;8.924;2022-12-18T08:29:54;98510.72;;;13.93;100.00
8697;BME280;4385;48.848;8.924;2022-12-18T08:32:20;98510.69;;;13.91;100.00
8697;BME280;4385;48.848;8.924;2022-12-18T08:34:45;98506.47;;;13.89;100.00
8697;BME280;4385;48.848;8.924;2022-12-18T08:37:10;98514.03;;;13.86;100.00
8697;BME280;4385;48.848;8.924;2022-12-18T08:39:36;98509.75;;;13.84;100.00
8697;BME280;4385;48.848;8.924;2022-12-18T08:42:01;98517.34;;;13.83;100.00
8697;BME280;4385;48.848;8.924;2022-12-18T08:44:45;98514.78;;;13.81;100.00
8697;BME280;4385;48.848;8.924;2022-12-18T08:47:10;98510.59;;;13.83;100.00
8697;BME280;4385;48.848;8.924;2022-12-18T08:49:36;98512.34;;;13.88;100.00
8697;BME280;4385;48.848;8.924;2022-12-18T08:52:01;98503.09;;;13.90;100.00
8697;BME280;4385;48.848;8.924;2022-12-18T08:54:28;98501.47;;;13.95;100.00
8697;BME280;4385;48.848;8.924;2022-12-18T08:56:53;98505.75;;;14.02;100.00
8697;BME280;4385;48.848;8.924;2022-12-18T08:59:19;98501.56;;;14.04;100.00
8697;BME280;4385;48.848;8.924;2022-12-18T09:01:45;98490.66;;;14.10;100.00
8697;BME280;4385;48.848;8.924;2022-12-18T09:04:11;98490.72;;;14.16;100.00
8697;BME280;4385;48.848;8.924;2022-12-18T09:06:36;98488.25;;;14.23;100.00
8697;BME280;4385;48.848;8.924;2022-12-18T09:09:03;98484.94;;;14.28;100.00
8697;BME280;4385;48.848;8.924;2022-12-18T09:11:29;98488.34;;;14.30;100.00
8697;BME280;4385;48.848;8.924;2022-12-18T09:13:55;98479.91;;;14.34;100.00
8697;BME280;4385;48.848;8.924;2022-12-18T09:16:22;98476.56;;;14.34;100.00
8697;BME280;4385;48.848;8.924;2022-12-18T09:18:47;98478.22;;;14.33;100.00
8697;BME280;4385;48.848;8.924;2022-12-18T09:21:15;98484.16;;;14.34;100.00
8697;BME280;4385;48.848;8.924;2022-12-18T09:23:41;98475.69;;;14.32;100.00
8697;BME280;4385;48.848;8.924;2022-12-18T09:26:06;98477.34;;;14.31;100.00
8697;BME280;4385;48.848;8.924;2022-12-18T09:28:32;98478.19;;;14.29;100.00
8697;BME280;4385;48.848;8.924;2022-12-18T09:30:57;98477.31;;;14.27;100.00
8697;BME280;4385;48.848;8.924;2022-12-18T09:33:23;98469.69;;;14.25;100.00
8697;BME280;4385;48.848;8.924;2022-12-18T09:35:48;98467.97;;;14.21;100.00
8697;BME280;4385;48.848;8.924;2022-12-18T09:38:16;98474.69;;;14.19;100.00
8697;BME280;4385;48.848;8.924;2022-12-18T09:40:51;98477.19;;;14.16;100.00
8697;BME280;4385;48.848;8.924;2022-12-18T09:43:26;98468.72;;;14.14;100.00
8697;BME280;4385;48.848;8.924;2022-12-18T09:46:00;98474.66;;;14.16;100.00
8697;BME280;4385;48.848;8.924;2022-12-18T09:48:39;98481.47;;;14.20;100.00
8697;BME280;4385;48.848;8.924;2022-12-18T09:51:18;98474.75;;;14.25;100.00
8697;BME280;4385;48.848;8.924;2022-12-18T09:53:50;98474.81;;;14.31;100.00
8697;BME280;4385;48.848;8.924;2022-12-18T09:56:19;98479.13;;;14.37;100.00
8697;BME280;4385;48.848;8.924;2022-12-18T09:58:55;98484.25;;;14.43;100.00
8697;BME280;4385;48.848;8.924;2022-12-18T10:01:22;98485.16;;;14.50;100.00
8697;BME280;4385;48.848;8.924;2022-12-18T10:03:48;98486.94;;;14.57;100.00
8697;BME280;4385;48.848;8.924;2022-12-18T10:06:32;98495.44;;;14.64;100.00
8697;BME280;4385;48.848;8.924;2022-12-18T10:09:11;98496.34;;;14.69;100.00
8697;BME280;4385;48.848;8.924;2022-12-18T10:14:48;98504.00;;;14.74;100.00
8697;BME280;4385;48.848;8.924;2022-12-18T10:20:13;98504.09;;;14.83;100.00
8697;BME280;4385;48.848;8.924;2022-12-18T10:23:00;98499.00;;;14.80;100.00
8697;BME280;4385;48.848;8.924;2022-12-18T10:25:37;98506.53;;;14.74;100.00
8697;BME280;4385;48.848;8.924;2022-12-18T10:28:12;98500.53;;;14.67;100.00
8697;BME280;4385;48.848;8.924;2022-12-18T10:30:39;98496.28;;;14.63;100.00
8697;BME280;4385;48.848;8.924;2022-12-18T10:33:05;98488.66;;;14.62;100.00
8697;BME280;4385;48.848;8.924;2022-12-18T10:35:30;98493.72;;;14.62;100.00
8697;BME280;4385;48.848;8.924;2022-12-18T10:40:55;98486.88;;;14.51;100.00
8697;BME280;4385;48.848;8.924;2022-12-18T10:43:23;98492.72;;;14.47;100.00
8697;BME280;4385;48.848;8.924;2022-12-18T10:48:35;98499.50;;;14.45;100.00
8697;BME280;4385;48.848;8.924;2022-12-18T10:51:02;98505.41;;;14.47;100.00
8697;BME280;4385;48.848;8.924;2022-12-18T10:53:29;98498.69;;;14.51;100.00
8697;BME280;4385;48.848;8.924;2022-12-18T10:55:58;98485.19;;;14.55;100.00
8697;BME280;4385;48.848;8.924;2022-12-18T10:58:32;98486.09;;;14.58;100.00
8697;BME280;4385;48.848;8.924;2022-12-18T11:03:40;98485.31;;;14.67;100.00
8697;BME280;4385;48.848;8.924;2022-12-18T11:06:15;98470.13;;;14.70;100.00
8697;BME280;4385;48.848;8.924;2022-12-18T11:08:42;98471.88;;;14.76;100.00
8697;BME280;4385;48.848;8.924;2022-12-18T11:11:20;98466.88;;;14.79;100.00
8697;BME280;4385;48.848;8.924;2022-12-18T11:14:05;98468.56;;;14.80;100.00
8697;BME280;4385;48.848;8.924;2022-12-18T11:16:42;98466.03;;;14.82;100.00
8697;BME280;4385;48.848;8.924;2022-12-18T11:19:19;98473.66;;;14.83;100.00
8697;BME280;4385;48.848;8.924;2022-12-18T11:21:46;98472.81;;;14.84;100.00
8697;BME280;4385;48.848;8.924;2022-12-18T11:24:20;98470.25;;;14.84;100.00
8697;BME280;4385;48.848;8.924;2022-12-18T11:26:49;98470.28;;;14.88;100.00
8697;BME280;4385;48.848;8.924;2022-12-18T11:29:31;98474.56;;;14.90;100.00
8697;BME280;4385;48.848;8.924;2022-12-18T11:32:23;98472.03;;;14.92;100.00
8697;BME280;4385;48.848;8.924;2022-12-18T11:35:03;98465.25;;;14.91;100.00
8697;BME280;4385;48.848;8.924;2022-12-18T11:37:29;98455.94;;;14.88;100.00
8697;BME280;4385;48.848;8.924;2022-12-18T11:39:59;98465.19;;;14.83;100.00
8697;BME280;4385;48.848;8.924;2022-12-18T11:42:39;98459.19;;;14.78;100.00
8697;BME280;4385;48.848;8.924;2022-12-18T11:47:49;98451.56;;;14.73;100.00
8697;BME280;4385;48.848;8.924;2022-12-18T11:50:23;98455.75;;;14.71;100.00
8697;BME280;4385;48.848;8.924;2022-12-18T11:52:49;98450.69;;;14.74;100.00
8697;BME280;4385;48.848;8.924;2022-12-18T11:55:19;98453.25;;;14.74;100.00
8697;BME280;4385;48.848;8.924;2022-12-18T12:07:05;98450.00;;;14.88;100.00
8697;BME280;4385;48.848;8.924;2022-12-18T12:15:42;98433.97;;;14.90;100.00
8697;BME280;4385;48.848;8.924;2022-12-18T12:18:29;98429.69;;;14.88;100.00
8697;BME280;4385;48.848;8.924;2022-12-18T12:21:05;98422.03;;;14.83;100.00
8697;BME280;4385;48.848;8.924;2022-12-18T12:23:46;98430.47;;;14.79;100.00
8697;BME280;4385;48.848;8.924;2022-12-18T12:26:42;98430.41;;;14.76;100.00
8697;BME280;4385;48.848;8.924;2022-12-18T12:31:47;98430.44;;;14.77;100.00
8697;BME280;4385;48.848;8.924;2022-12-18T12:34:23;98436.31;;;14.73;100.00
8697;BME280;4385;48.848;8.924;2022-12-18T12:39:28;98443.88;;;14.64;100.00
8697;BME280;4385;48.848;8.924;2022-12-18T12:41:55;98448.91;;;14.59;100.00
8697;BME280;4385;48.848;8.924;2022-12-18T12:44:44;98440.41;;;14.55;100.00
8697;BME280;4385;48.848;8.924;2022-12-18T12:47:17;98439.53;;;14.55;100.00
8697;BME280;4385;48.848;8.924;2022-12-18T12:49:45;98440.41;;;14.55;100.00
8697;BME280;4385;48.848;8.924;2022-12-18T12:52:23;98446.34;;;14.57;100.00
8697;BME280;4385;48.848;8.924;2022-12-18T12:54:53;98457.34;;;14.61;100.00
8697;BME280;4385;48.848;8.924;2022-12-18T12:57:22;98454.84;;;14.66;100.00
8697;BME280;4385;48.848;8.924;2022-12-18T13:02:22;98457.47;;;14.75;100.00
8697;BME280;4385;48.848;8.924;2022-12-18T13:04:54;98456.66;;;14.78;100.00
8697;BME280;4385;48.848;8.924;2022-12-18T13:07:46;98458.34;;;14.77;100.00
8697;BME280;4385;48.848;8.924;2022-12-18T13:20:36;98439.16;;;15.07;100.00
8697;BME280;4385;48.848;8.924;2022-12-18T13:25:57;98431.56;;;15.11;100.00
8697;BME280;4385;48.848;8.924;2022-12-18T13:31:13;98429.00;;;15.07;100.00
8697;BME280;4385;48.848;8.924;2022-12-18T13:33:44;98437.44;;;15.06;100.00
8697;BME280;4385;48.848;8.924;2022-12-18T13:38:47;98426.44;;;15.06;100.00
8697;BME280;4385;48.848;8.924;2022-12-18T13:43:47;98421.38;;;15.06;100.00
8697;BME280;4385;48.848;8.924;2022-12-18T13:46:44;98412.91;;;15.08;100.00
8697;BME280;4385;48.848;8.924;2022-12-18T13:49:18;98411.28;;;15.15;100.00
8697;BME280;4385;48.848;8.924;2022-12-18T13:51:49;98410.44;;;15.21;100.00
8697;BME280;4385;48.848;8.924;2022-12-18T13:54:37;98407.94;;;15.27;100.00
8697;BME280;4385;48.848;8.924;2022-12-18T13:57:05;98409.63;;;15.28;100.00
8697;BME280;4385;48.848;8.924;2022-12-18T13:59:36;98415.56;;;15.29;100.00
8697;BME280;4385;48.848;8.924;2022-12-18T14:02:15;98408.81;;;15.29;100.00
8697;BME280;4385;48.848;8.924;2022-12-18T14:04:45;98416.44;;;15.29;100.00
8697;BME280;4385;48.848;8.924;2022-12-18T14:07:14;98412.19;;;15.31;100.00
8697;BME280;4385;48.848;8.924;2022-12-18T14:09:46;98410.53;;;15.33;100.00
8697;BME280;4385;48.848;8.924;2022-12-18T14:12:20;98412.22;;;15.38;100.00
8697;BME280;4385;48.848;8.924;2022-12-18T14:15:06;98416.47;;;15.39;100.00
8697;BME280;4385;48.848;8.924;2022-12-18T14:17:40;98424.09;;;15.39;100.00
8697;BME280;4385;48.848;8.924;2022-12-18T14:20:13;98423.22;;;15.33;100.00
8697;BME280;4385;48.848;8.924;2022-12-18T14:22:43;98426.59;;;15.29;100.00
8697;BME280;4385;48.848;8.924;2022-12-18T14:27:37;98422.31;;;15.24;100.00
8697;BME280;4385;48.848;8.924;2022-12-18T14:33:08;98433.25;;;15.12;100.00
8697;BME280;4385;48.848;8.924;2022-12-18T14:35:36;98423.94;;;15.09;100.00
8697;BME280;4385;48.848;8.924;2022-12-18T14:38:23;98421.38;;;15.04;100.00